Reynoldsburg, Illinois
Current Conditions -  °F | °C
As of 6:35 PM on Friday 31 Oct 2014 (Local Time) from KMWA Reporting Station
Broken Clouds Broken Clouds  
Wind Chill: 39°   Ceiling: 6000
Heat Index: 45°   Visibility: 10mi
Dew Point: 23°   Wind: 10mph
Humidity: 43%   Direction: 330°NNW
Pressure: 30.27"   Gusts: 16mph
Location:  37.5342°N, 88.7644°W
Report Text: KMWA 312335Z AUTO 33009G14KT 10SM BKN060 07/M05 A3027 RMK AO2
Loading
Personal Weather Stations






























Interactive Weather Map
Tropical Storm Tracking
New forecast layout! Learn more

10-Day Weather Forecast

Advertisements
Track Severe Weather on mobile